createdAt,value
2022-09-22T00:00:56.837Z,99.90
2022-09-22T00:03:32.481Z,99.90
2022-09-22T00:06:06.303Z,99.90
2022-09-22T00:08:39.168Z,99.90
2022-09-22T00:11:16.925Z,99.90
2022-09-22T00:13:57.862Z,99.90
2022-09-22T00:16:34.510Z,99.90
2022-09-22T00:19:09.119Z,99.90
2022-09-22T00:21:40.879Z,99.90
2022-09-22T00:24:15.594Z,99.90
2022-09-22T00:26:47.314Z,99.90
2022-09-22T00:29:21.613Z,99.90
2022-09-22T00:31:54.584Z,99.90
2022-09-22T00:34:26.983Z,99.90
2022-09-22T00:36:58.876Z,99.90
2022-09-22T00:39:31.965Z,99.90
2022-09-22T00:42:06.334Z,99.90
2022-09-22T00:44:44.641Z,99.90
2022-09-22T00:47:19.339Z,99.90
2022-09-22T00:50:05.717Z,99.90
2022-09-22T00:52:40.723Z,99.90
2022-09-22T00:55:34.556Z,99.90
2022-09-22T00:58:12.508Z,99.90
2022-09-22T01:00:44.347Z,99.90
2022-09-22T01:03:18.243Z,99.90
2022-09-22T01:05:51.829Z,99.90
2022-09-22T01:08:24.593Z,99.90
2022-09-22T01:10:57.410Z,99.90
2022-09-22T01:13:37.705Z,99.90
2022-09-22T01:16:11.609Z,99.90
2022-09-22T01:18:53.172Z,99.90
2022-09-22T01:21:43.496Z,99.90
2022-09-22T01:24:26.760Z,99.90
2022-09-22T01:27:17.346Z,99.90
2022-09-22T01:29:54.922Z,99.90
2022-09-22T01:32:28.841Z,99.90
2022-09-22T01:35:03.647Z,99.90
2022-09-22T01:37:47.159Z,99.90
2022-09-22T01:40:27.890Z,99.90
2022-09-22T01:43:08.880Z,99.90
2022-09-22T01:45:42.084Z,99.90
2022-09-22T01:48:24.706Z,99.90
2022-09-22T01:51:04.505Z,99.90
2022-09-22T01:53:39.689Z,99.90
2022-09-22T01:56:11.922Z,99.90
2022-09-22T01:58:47.105Z,99.90
2022-09-22T02:01:20.250Z,99.90
2022-09-22T02:04:04.061Z,99.90
2022-09-22T02:06:38.995Z,99.90
2022-09-22T02:09:11.931Z,99.90
2022-09-22T02:11:43.752Z,99.90
2022-09-22T02:14:16.045Z,99.90
2022-09-22T02:16:48.140Z,99.90
2022-09-22T02:19:30.600Z,99.90
2022-09-22T02:22:02.476Z,99.90
2022-09-22T02:24:37.779Z,99.90
2022-09-22T02:27:09.472Z,99.90
2022-09-22T02:29:43.828Z,99.90
2022-09-22T02:32:18.170Z,99.90
2022-09-22T02:34:50.140Z,99.90
2022-09-22T02:37:25.919Z,99.90
2022-09-22T02:40:00.597Z,99.90
2022-09-22T02:42:38.477Z,99.90
2022-09-22T02:45:23.883Z,99.90
2022-09-22T02:47:59.974Z,99.90
2022-09-22T02:50:32.170Z,99.90
2022-09-22T02:53:14.159Z,99.90
2022-09-22T02:55:49.039Z,99.90
2022-09-22T02:58:20.793Z,99.90
2022-09-22T03:00:52.584Z,99.90
2022-09-22T03:03:24.318Z,99.90
2022-09-22T03:05:58.196Z,99.90
2022-09-22T03:08:29.938Z,99.90
2022-09-22T03:11:01.712Z,99.90
2022-09-22T03:13:33.454Z,99.90
2022-09-22T03:16:05.392Z,99.90
2022-09-22T03:18:37.182Z,99.90
2022-09-22T03:21:08.942Z,99.90
2022-09-22T03:23:40.656Z,99.90
2022-09-22T03:26:14.966Z,99.90
2022-09-22T03:28:46.714Z,99.90
2022-09-22T03:31:18.548Z,99.90
2022-09-22T03:33:52.985Z,99.90
2022-09-22T03:36:24.882Z,99.90
2022-09-22T03:38:56.627Z,99.90
2022-09-22T03:41:28.418Z,99.90
2022-09-22T03:44:00.278Z,99.90
2022-09-22T03:46:32.148Z,99.90
2022-09-22T03:49:06.437Z,99.90
2022-09-22T03:51:38.812Z,99.90
2022-09-22T03:54:10.538Z,99.90
2022-09-22T03:56:42.292Z,99.90
2022-09-22T03:59:14.173Z,99.90
2022-09-22T04:01:46.023Z,99.90
2022-09-22T04:04:17.811Z,99.90
2022-09-22T04:06:52.046Z,99.90
2022-09-22T04:09:23.797Z,99.90
2022-09-22T04:11:55.586Z,99.90
2022-09-22T04:14:27.501Z,99.90
2022-09-22T04:16:59.358Z,99.90
2022-09-22T04:19:39.204Z,99.90
2022-09-22T04:22:10.960Z,99.90
2022-09-22T04:24:42.781Z,99.90
2022-09-22T04:27:21.584Z,99.90
2022-09-22T04:29:53.341Z,99.90
2022-09-22T04:32:25.093Z,99.90
2022-09-22T04:34:56.802Z,99.90
2022-09-22T04:37:28.579Z,99.90
2022-09-22T04:40:00.418Z,99.90
2022-09-22T04:42:32.179Z,99.90
2022-09-22T04:45:04.326Z,99.90
2022-09-22T04:47:36.164Z,99.90
2022-09-22T04:50:08.046Z,99.90
2022-09-22T04:52:39.973Z,99.90
2022-09-22T04:55:11.950Z,99.90
2022-09-22T04:57:54.759Z,99.90
2022-09-22T05:00:27.678Z,99.90
2022-09-22T05:03:00.703Z,99.90
2022-09-22T05:05:32.398Z,99.90
2022-09-22T05:08:04.316Z,99.90
2022-09-22T05:10:37.299Z,99.90
2022-09-22T05:13:11.803Z,99.90
2022-09-22T05:15:43.498Z,99.90
2022-09-22T05:18:15.249Z,99.90
2022-09-22T05:20:50.129Z,99.90
2022-09-22T05:23:21.989Z,99.90
2022-09-22T05:25:53.741Z,99.90
2022-09-22T05:28:25.636Z,99.90
2022-09-22T05:30:57.337Z,99.90
2022-09-22T05:33:29.103Z,99.90
2022-09-22T05:36:00.893Z,99.90
2022-09-22T05:38:32.661Z,99.90
2022-09-22T05:41:04.404Z,99.90
2022-09-22T05:43:36.147Z,99.90
2022-09-22T05:46:10.315Z,99.90
2022-09-22T05:48:42.157Z,99.90
2022-09-22T05:51:13.938Z,99.90
2022-09-22T05:53:45.687Z,99.90
2022-09-22T05:56:17.419Z,99.90
2022-09-22T05:58:49.187Z,99.90
2022-09-22T06:01:23.412Z,99.90
2022-09-22T06:03:55.232Z,99.90
2022-09-22T06:06:26.941Z,99.90
2022-09-22T06:09:01.576Z,99.90
2022-09-22T06:11:35.750Z,99.90
2022-09-22T06:14:12.555Z,99.90
2022-09-22T06:16:44.342Z,99.90
2022-09-22T06:19:16.125Z,99.90
2022-09-22T06:21:48.201Z,99.90
2022-09-22T06:24:20.008Z,99.90
2022-09-22T06:26:56.475Z,99.90
2022-09-22T06:29:28.541Z,99.90
2022-09-22T06:32:00.694Z,99.90
2022-09-22T06:34:33.935Z,99.90
2022-09-22T06:37:08.971Z,99.90
2022-09-22T06:39:40.743Z,99.90
2022-09-22T06:42:15.189Z,99.90
2022-09-22T06:44:47.628Z,99.90
2022-09-22T06:47:21.759Z,99.90
2022-09-22T06:49:53.830Z,99.90
2022-09-22T06:52:27.291Z,99.90
2022-09-22T06:55:00.996Z,99.90
2022-09-22T06:57:33.103Z,99.90
2022-09-22T07:00:05.070Z,99.90
2022-09-22T07:02:36.788Z,99.90
2022-09-22T07:05:08.694Z,99.90
2022-09-22T07:07:40.402Z,99.90
2022-09-22T07:10:14.708Z,99.90
2022-09-22T07:12:46.913Z,99.90
2022-09-22T07:15:18.662Z,99.90
2022-09-22T07:17:53.470Z,99.90
2022-09-22T07:20:25.258Z,99.90
2022-09-22T07:23:00.928Z,99.90
2022-09-22T07:25:35.999Z,99.90
2022-09-22T07:28:13.726Z,99.90
2022-09-22T07:30:47.838Z,99.90
2022-09-22T07:33:19.898Z,99.90
2022-09-22T07:36:04.970Z,99.90
2022-09-22T07:38:37.592Z,99.90
2022-09-22T07:41:13.771Z,99.90
2022-09-22T07:43:45.617Z,99.90
2022-09-22T07:46:17.575Z,99.90
2022-09-22T07:48:51.736Z,99.90
2022-09-22T07:51:24.810Z,99.90
2022-09-22T07:54:07.829Z,99.90
2022-09-22T07:56:41.365Z,99.90
2022-09-22T07:59:14.201Z,99.90
2022-09-22T08:01:50.835Z,99.90
2022-09-22T08:04:26.867Z,99.90
2022-09-22T08:06:58.770Z,99.90
2022-09-22T08:09:33.565Z,99.90
2022-09-22T08:12:05.382Z,99.90
2022-09-22T08:14:37.135Z,99.90
2022-09-22T08:17:12.279Z,99.90
2022-09-22T08:19:44.193Z,99.90
2022-09-22T08:22:18.017Z,99.90
2022-09-22T08:24:49.780Z,99.90
2022-09-22T08:27:21.580Z,99.90
2022-09-22T08:29:53.364Z,99.90
2022-09-22T08:32:30.577Z,99.90
2022-09-22T08:35:03.917Z,99.90
2022-09-22T08:37:37.467Z,99.90
2022-09-22T08:40:19.282Z,99.90
2022-09-22T08:42:54.576Z,99.90
2022-09-22T08:45:30.290Z,99.90
2022-09-22T08:48:26.265Z,99.90
2022-09-22T08:51:52.061Z,99.90
2022-09-22T08:54:28.148Z,99.90
2022-09-22T08:57:10.821Z,99.90
2022-09-22T08:59:42.823Z,99.90
2022-09-22T09:02:33.551Z,99.90
2022-09-22T09:05:08.388Z,99.90
2022-09-22T09:07:46.642Z,99.90
2022-09-22T09:10:21.413Z,99.90
2022-09-22T09:12:53.465Z,99.90
2022-09-22T09:15:40.257Z,99.90
2022-09-22T09:18:18.027Z,99.90
2022-09-22T09:20:52.215Z,99.90
2022-09-22T09:25:21.950Z,99.90
2022-09-22T09:26:21.350Z,99.90
2022-09-22T09:29:03.029Z,99.90
2022-09-22T09:31:43.423Z,99.90
2022-09-22T09:34:18.628Z,99.90
2022-09-22T09:36:55.414Z,99.90
2022-09-22T09:39:29.661Z,99.90
2022-09-22T09:42:02.443Z,99.90
2022-09-22T09:44:39.167Z,99.90
2022-09-22T09:47:33.960Z,99.90
2022-09-22T09:50:11.127Z,99.90
2022-09-22T09:52:43.243Z,99.90
2022-09-22T09:55:14.993Z,99.90
2022-09-22T09:58:05.701Z,99.90
2022-09-22T10:00:56.102Z,99.90
2022-09-22T10:03:36.517Z,99.90
2022-09-22T10:06:09.512Z,99.90
2022-09-22T10:08:44.869Z,99.90
2022-09-22T10:11:16.750Z,99.90
2022-09-22T10:13:55.242Z,99.90
2022-09-22T10:16:30.838Z,99.90
2022-09-22T10:19:04.861Z,99.90
2022-09-22T10:21:37.707Z,99.90
2022-09-22T10:24:23.792Z,99.90
2022-09-22T10:26:59.553Z,99.90
2022-09-22T10:29:33.216Z,99.90
2022-09-22T10:32:17.675Z,99.90
2022-09-22T10:34:51.186Z,99.90
2022-09-22T10:37:27.866Z,99.90
2022-09-22T10:40:03.456Z,99.90
2022-09-22T10:42:36.072Z,99.90
2022-09-22T10:45:12.566Z,99.90
2022-09-22T10:47:56.551Z,99.90
2022-09-22T10:50:51.627Z,99.90
2022-09-22T10:53:37.708Z,99.90
2022-09-22T10:56:28.292Z,99.90
2022-09-22T10:59:12.992Z,99.90
2022-09-22T11:02:19.232Z,99.90
2022-09-22T11:04:51.486Z,99.90
2022-09-22T11:07:47.466Z,99.90
2022-09-22T11:10:50.100Z,99.90
2022-09-22T11:13:38.438Z,99.90
2022-09-22T11:16:15.866Z,99.90
2022-09-22T11:18:57.365Z,99.90
2022-09-22T11:21:46.043Z,99.90
2022-09-22T11:24:26.987Z,99.90
2022-09-22T11:27:01.263Z,99.90
2022-09-22T11:29:45.136Z,99.90
2022-09-22T11:32:16.890Z,99.90
2022-09-22T11:35:16.165Z,99.90
2022-09-22T11:37:49.756Z,99.90
2022-09-22T11:40:29.805Z,99.90
2022-09-22T11:43:04.714Z,99.90
2022-09-22T11:45:44.973Z,99.90
2022-09-22T11:48:16.838Z,99.90
2022-09-22T11:50:53.829Z,99.90
2022-09-22T11:53:34.177Z,99.90
2022-09-22T11:56:12.736Z,99.90
2022-09-22T11:58:45.315Z,99.90
2022-09-22T12:01:23.231Z,99.90
2022-09-22T12:04:05.837Z,99.90
2022-09-22T12:06:41.532Z,99.90
2022-09-22T12:09:25.789Z,99.90
2022-09-22T12:11:58.547Z,99.90
2022-09-22T12:14:35.809Z,99.90
2022-09-22T12:17:10.343Z,99.90
2022-09-22T12:19:54.159Z,99.90
2022-09-22T12:22:29.287Z,99.90
2022-09-22T12:25:03.471Z,99.90
2022-09-22T12:27:36.062Z,99.90
2022-09-22T12:30:19.640Z,99.90
2022-09-22T12:32:53.840Z,99.90
2022-09-22T12:35:31.076Z,99.90
2022-09-22T12:38:03.171Z,99.90
2022-09-22T12:40:41.650Z,99.90
2022-09-22T12:43:15.540Z,99.90
2022-09-22T12:45:48.657Z,99.90
2022-09-22T12:48:25.666Z,99.90
2022-09-22T12:51:15.902Z,99.90
2022-09-22T12:53:50.019Z,99.90
2022-09-22T12:56:40.242Z,99.90
2022-09-22T12:59:30.707Z,99.90
2022-09-22T13:02:11.262Z,99.90
2022-09-22T13:04:58.702Z,99.90
2022-09-22T13:07:33.650Z,99.90
2022-09-22T13:10:23.505Z,99.90
2022-09-22T13:13:01.175Z,99.90
2022-09-22T13:15:38.804Z,99.90
2022-09-22T13:18:29.601Z,99.90
2022-09-22T13:21:13.567Z,99.90
2022-09-22T13:23:51.333Z,99.90
2022-09-22T13:26:34.595Z,81.10
2022-09-22T13:29:11.769Z,99.80
2022-09-22T13:31:43.573Z,90.00
2022-09-22T13:34:25.046Z,82.70
2022-09-22T13:37:09.580Z,96.20
2022-09-22T13:39:47.158Z,99.90
2022-09-22T13:42:24.579Z,99.90
2022-09-22T13:45:18.664Z,99.90
2022-09-22T13:47:52.744Z,99.90
2022-09-22T13:50:27.897Z,99.90
2022-09-22T13:53:02.538Z,99.90
2022-09-22T13:55:36.037Z,99.90
2022-09-22T13:58:09.537Z,99.90
2022-09-22T14:01:09.078Z,99.90
2022-09-22T14:03:39.999Z,99.90
2022-09-22T14:06:38.123Z,99.90
2022-09-22T14:09:14.075Z,99.90
2022-09-22T14:11:48.134Z,56.60
2022-09-22T14:14:27.215Z,62.60
2022-09-22T14:17:08.191Z,54.80
2022-09-22T14:19:44.290Z,29.00
2022-09-22T14:22:26.561Z,16.30
2022-09-22T14:25:01.415Z,4.40
2022-09-22T14:27:36.195Z,11.10
2022-09-22T14:30:17.966Z,23.80
2022-09-22T14:33:12.494Z,49.80
2022-09-22T14:35:47.195Z,50.30
2022-09-22T14:38:23.728Z,64.50
2022-09-22T14:40:56.915Z,99.90
2022-09-22T14:43:37.973Z,99.90
2022-09-22T14:46:23.842Z,99.90
2022-09-22T14:48:55.743Z,99.90
2022-09-22T14:51:27.554Z,99.90
2022-09-22T14:54:03.938Z,99.90
2022-09-22T14:56:38.075Z,99.90
2022-09-22T14:59:34.166Z,99.90
2022-09-22T15:02:29.494Z,99.90
2022-09-22T15:05:05.052Z,99.90
2022-09-22T15:07:38.282Z,99.90
2022-09-22T15:10:22.384Z,99.90
2022-09-22T15:12:55.297Z,99.90
2022-09-22T15:15:31.186Z,99.90
2022-09-22T15:18:16.350Z,99.90
2022-09-22T15:20:51.843Z,99.90
2022-09-22T15:23:34.299Z,99.90
2022-09-22T15:26:06.057Z,99.90
2022-09-22T15:28:38.212Z,99.90
2022-09-22T15:31:11.880Z,99.90
2022-09-22T15:33:45.934Z,99.90
2022-09-22T15:36:19.459Z,99.90
2022-09-22T15:38:53.307Z,99.90
2022-09-22T15:41:25.141Z,99.90
2022-09-22T15:43:57.121Z,99.90
2022-09-22T15:46:36.085Z,99.90
2022-09-22T15:49:13.941Z,99.90
2022-09-22T15:51:49.412Z,99.90
2022-09-22T15:54:22.388Z,99.90
2022-09-22T15:56:54.906Z,99.90
2022-09-22T15:59:28.379Z,99.90
2022-09-22T16:02:01.311Z,99.90
2022-09-22T16:04:33.707Z,99.90
2022-09-22T16:07:08.505Z,99.90
2022-09-22T16:09:40.403Z,99.90
2022-09-22T16:12:13.819Z,99.90
2022-09-22T16:14:45.572Z,99.90
2022-09-22T16:17:17.413Z,99.90
2022-09-22T16:19:49.175Z,99.90
2022-09-22T16:22:20.916Z,99.90
2022-09-22T16:24:52.704Z,99.90
2022-09-22T16:27:24.443Z,99.90
2022-09-22T16:29:56.944Z,99.90
2022-09-22T16:32:32.559Z,99.90
2022-09-22T16:35:04.462Z,99.90
2022-09-22T16:37:36.216Z,99.90
2022-09-22T16:40:09.226Z,99.90
2022-09-22T16:42:40.997Z,99.90
2022-09-22T16:45:12.747Z,99.90
2022-09-22T16:47:44.477Z,99.90
2022-09-22T16:50:16.234Z,99.90
2022-09-22T16:52:47.955Z,99.90
2022-09-22T16:55:19.724Z,99.90
2022-09-22T16:57:51.458Z,99.90
2022-09-22T17:00:25.643Z,99.90
2022-09-22T17:02:57.491Z,99.90
2022-09-22T17:05:29.430Z,99.90
2022-09-22T17:08:04.710Z,99.90
2022-09-22T17:10:38.696Z,99.90
2022-09-22T17:13:10.407Z,99.90
2022-09-22T17:15:42.216Z,99.90
2022-09-22T17:18:13.937Z,99.90
2022-09-22T17:20:45.724Z,99.90
2022-09-22T17:23:19.828Z,99.90
2022-09-22T17:25:51.830Z,99.90
2022-09-22T17:28:28.245Z,99.90
2022-09-22T17:31:07.602Z,99.90
2022-09-22T17:33:51.318Z,99.90
2022-09-22T17:36:24.832Z,99.90
2022-09-22T17:38:58.415Z,99.90
2022-09-22T17:41:34.200Z,99.90
2022-09-22T17:44:06.642Z,99.90
2022-09-22T17:46:58.518Z,99.90
2022-09-22T17:49:48.786Z,99.90
2022-09-22T17:52:29.897Z,99.90
2022-09-22T17:55:08.556Z,99.90
2022-09-22T17:57:41.473Z,99.90
2022-09-22T18:00:17.136Z,99.90
2022-09-22T18:02:49.907Z,99.90
2022-09-22T18:05:25.552Z,99.90
2022-09-22T18:07:58.935Z,99.90
2022-09-22T18:10:34.287Z,99.90
2022-09-22T18:13:08.029Z,99.90
2022-09-22T18:15:41.545Z,99.90
2022-09-22T18:18:13.642Z,99.90
2022-09-22T18:20:45.459Z,99.90
2022-09-22T18:23:18.132Z,99.90
2022-09-22T18:25:50.337Z,99.90
2022-09-22T18:28:23.266Z,99.90
2022-09-22T18:30:55.230Z,99.90
2022-09-22T18:33:27.159Z,99.90
2022-09-22T18:35:59.475Z,99.90
2022-09-22T18:38:33.687Z,99.90
2022-09-22T18:41:07.622Z,99.90
2022-09-22T18:43:41.391Z,99.90
2022-09-22T18:46:20.046Z,99.90
2022-09-22T18:49:05.021Z,99.90
2022-09-22T18:51:37.985Z,99.90
2022-09-22T18:54:13.757Z,99.90
2022-09-22T18:56:47.970Z,99.90
2022-09-22T18:59:22.097Z,99.90
2022-09-22T19:01:56.680Z,99.90
2022-09-22T19:04:28.625Z,99.90
2022-09-22T19:07:19.227Z,99.90
2022-09-22T19:09:52.579Z,99.90
2022-09-22T19:12:24.311Z,99.90
2022-09-22T19:14:57.285Z,99.90
2022-09-22T19:17:29.247Z,99.90
2022-09-22T19:20:01.103Z,99.90
2022-09-22T19:22:32.893Z,99.90
2022-09-22T19:25:05.820Z,99.90
2022-09-22T19:27:39.722Z,99.90
2022-09-22T19:30:12.043Z,99.90
2022-09-22T19:32:46.059Z,99.90
2022-09-22T19:35:17.943Z,99.90
2022-09-22T19:37:51.924Z,99.90
2022-09-22T19:40:25.038Z,99.90
2022-09-22T19:42:57.619Z,99.90
2022-09-22T19:45:29.625Z,99.90
2022-09-22T19:48:01.796Z,99.90
2022-09-22T19:50:33.569Z,99.90
2022-09-22T19:53:05.258Z,99.90
2022-09-22T19:55:37.035Z,99.90
2022-09-22T19:58:11.185Z,99.90
2022-09-22T20:00:43.798Z,99.90
2022-09-22T20:03:15.690Z,99.90
2022-09-22T20:05:48.070Z,99.90
2022-09-22T20:08:21.565Z,99.90
2022-09-22T20:11:06.173Z,99.90
2022-09-22T20:14:05.428Z,99.90
2022-09-22T20:16:37.213Z,99.90
2022-09-22T20:19:08.994Z,99.90
2022-09-22T20:21:42.266Z,99.90
2022-09-22T20:24:14.994Z,99.90
2022-09-22T20:26:47.232Z,99.90
2022-09-22T20:29:19.020Z,99.90
2022-09-22T20:31:52.914Z,99.90
2022-09-22T20:34:24.712Z,99.90
2022-09-22T20:36:58.952Z,99.90
2022-09-22T20:39:30.717Z,99.90
2022-09-22T20:42:03.414Z,99.90
2022-09-22T20:44:38.140Z,99.90
2022-09-22T20:47:13.545Z,99.90
2022-09-22T20:49:51.525Z,99.90
2022-09-22T20:52:23.818Z,99.90
2022-09-22T20:54:55.526Z,99.90
2022-09-22T20:57:32.269Z,99.90
2022-09-22T21:00:04.235Z,99.90
2022-09-22T21:02:36.045Z,99.90
2022-09-22T21:05:08.092Z,99.90
2022-09-22T21:07:42.903Z,99.90
2022-09-22T21:10:33.303Z,99.90
2022-09-22T21:13:07.337Z,99.90
2022-09-22T21:15:41.545Z,99.90
2022-09-22T21:18:13.469Z,99.90
2022-09-22T21:20:47.376Z,99.90
2022-09-22T21:23:19.659Z,99.90
2022-09-22T21:26:04.191Z,99.90
2022-09-22T21:28:35.966Z,99.90
2022-09-22T21:31:08.293Z,99.90
2022-09-22T21:33:40.309Z,99.90
2022-09-22T21:36:15.532Z,99.90
2022-09-22T21:38:48.020Z,99.90
2022-09-22T21:41:20.870Z,99.90
2022-09-22T21:43:52.672Z,99.90
2022-09-22T21:46:29.546Z,99.90
2022-09-22T21:49:02.516Z,99.90
2022-09-22T21:51:36.327Z,99.90
2022-09-22T21:54:11.047Z,99.90
2022-09-22T21:56:42.808Z,99.90
2022-09-22T21:59:14.714Z,99.90
2022-09-22T22:01:49.002Z,99.90
2022-09-22T22:04:20.848Z,99.90
2022-09-22T22:06:52.640Z,99.90
2022-09-22T22:09:25.412Z,99.90
2022-09-22T22:11:58.948Z,99.90
2022-09-22T22:14:32.146Z,99.90
2022-09-22T22:17:04.028Z,99.90
2022-09-22T22:19:35.799Z,99.90
2022-09-22T22:22:07.516Z,99.90
2022-09-22T22:24:42.508Z,99.90
2022-09-22T22:27:16.831Z,99.90
2022-09-22T22:29:48.640Z,99.90
2022-09-22T22:32:20.348Z,99.90
2022-09-22T22:34:52.302Z,99.90
2022-09-22T22:37:24.025Z,99.90
2022-09-22T22:39:55.810Z,99.90
2022-09-22T22:42:27.540Z,99.90
2022-09-22T22:44:59.338Z,99.90
2022-09-22T22:47:31.690Z,99.90
2022-09-22T22:50:03.576Z,99.90
2022-09-22T22:52:37.845Z,99.90
2022-09-22T22:55:11.780Z,99.90
2022-09-22T22:57:43.499Z,99.90
2022-09-22T23:00:15.355Z,99.90
2022-09-22T23:02:47.088Z,99.90
2022-09-22T23:05:19.298Z,99.90
2022-09-22T23:07:52.151Z,99.90
2022-09-22T23:10:25.332Z,99.90
2022-09-22T23:13:01.282Z,99.90
2022-09-22T23:15:33.729Z,99.90
2022-09-22T23:18:08.038Z,99.90
2022-09-22T23:20:39.901Z,99.90
2022-09-22T23:23:11.606Z,99.90
2022-09-22T23:25:43.369Z,99.90
2022-09-22T23:28:17.624Z,99.90
2022-09-22T23:30:55.673Z,99.90
2022-09-22T23:33:28.632Z,99.90
2022-09-22T23:36:03.171Z,99.90
2022-09-22T23:38:35.347Z,99.90
2022-09-22T23:41:08.886Z,99.90
2022-09-22T23:43:40.675Z,99.90
2022-09-22T23:46:12.586Z,99.90
2022-09-22T23:48:44.305Z,99.90
2022-09-22T23:51:16.168Z,99.90
2022-09-22T23:53:47.964Z,99.90
2022-09-22T23:56:19.820Z,99.90
2022-09-22T23:58:51.685Z,99.90
